createdAt,value
2018-07-08T00:01:03.521Z,9.33
2018-07-08T00:03:31.373Z,6.70
2018-07-08T00:05:59.265Z,6.33
2018-07-08T00:08:27.381Z,11.93
2018-07-08T00:10:57.658Z,11.83
2018-07-08T00:13:25.475Z,10.20
2018-07-08T00:15:53.364Z,6.87
2018-07-08T00:18:22.239Z,12.20
2018-07-08T00:20:51.482Z,9.57
2018-07-08T00:23:19.694Z,7.90
2018-07-08T00:25:47.602Z,8.20
2018-07-08T00:28:15.449Z,7.63
2018-07-08T00:30:43.239Z,10.40
2018-07-08T00:33:11.224Z,9.80
2018-07-08T00:35:39.354Z,12.03
2018-07-08T00:38:07.183Z,5.63
2018-07-08T00:40:34.949Z,5.67
2018-07-08T00:43:03.095Z,8.60
2018-07-08T00:45:30.881Z,9.37
2018-07-08T00:47:58.747Z,10.60
2018-07-08T00:50:26.818Z,6.70
2018-07-08T00:52:54.624Z,9.70
2018-07-08T00:55:22.400Z,13.27
2018-07-08T00:57:50.182Z,7.57
2018-07-08T01:00:27.658Z,6.73
2018-07-08T01:02:55.678Z,10.40
2018-07-08T01:05:23.494Z,10.77
2018-07-08T01:07:51.425Z,8.90
2018-07-08T01:10:20.080Z,10.10
2018-07-08T01:12:47.860Z,11.07
2018-07-08T01:15:15.727Z,8.83
2018-07-08T01:17:43.530Z,8.93
2018-07-08T01:20:11.245Z,14.27
2018-07-08T01:22:39.031Z,12.83
2018-07-08T01:25:11.341Z,8.83
2018-07-08T01:27:39.833Z,10.10
2018-07-08T01:30:08.178Z,9.50
2018-07-08T01:32:36.172Z,11.57
2018-07-08T01:35:03.963Z,16.60
2018-07-08T01:37:32.195Z,6.60
2018-07-08T01:39:59.908Z,11.10
2018-07-08T01:42:28.302Z,9.10
2018-07-08T01:44:56.208Z,9.17
2018-07-08T01:47:24.343Z,10.70
2018-07-08T01:49:52.655Z,9.63
2018-07-08T01:52:20.886Z,8.70
2018-07-08T01:54:48.707Z,8.97
2018-07-08T01:57:16.410Z,12.70
2018-07-08T01:59:44.268Z,12.67
2018-07-08T02:02:12.085Z,8.53
2018-07-08T02:04:39.747Z,14.23
2018-07-08T02:07:07.674Z,11.27
2018-07-08T02:09:35.443Z,9.10
2018-07-08T02:12:03.241Z,9.80
2018-07-08T02:14:30.957Z,9.50
2018-07-08T02:16:58.861Z,8.67
2018-07-08T02:19:26.681Z,10.90
2018-07-08T02:21:54.614Z,9.10
2018-07-08T02:24:22.390Z,11.63
2018-07-08T02:26:50.350Z,10.47
2018-07-08T02:29:18.103Z,9.27
2018-07-08T02:31:45.775Z,14.53
2018-07-08T02:34:13.571Z,8.03
2018-07-08T02:36:41.349Z,7.67
2018-07-08T02:39:09.375Z,11.07
2018-07-08T02:41:37.129Z,9.70
2018-07-08T02:44:05.287Z,13.00
2018-07-08T02:46:33.183Z,14.17
2018-07-08T02:49:01.328Z,10.60
2018-07-08T02:51:29.814Z,11.30
2018-07-08T02:53:57.638Z,9.97
2018-07-08T02:56:25.416Z,13.90
2018-07-08T02:58:53.337Z,12.17
2018-07-08T03:01:21.682Z,9.23
2018-07-08T03:03:50.125Z,9.00
2018-07-08T03:06:17.941Z,11.10
2018-07-08T03:08:45.650Z,9.40
2018-07-08T03:11:13.418Z,14.90
2018-07-08T03:13:41.190Z,11.07
2018-07-08T03:16:08.987Z,10.80
2018-07-08T03:18:36.828Z,9.77
2018-07-08T03:21:04.559Z,15.53
2018-07-08T03:23:32.391Z,12.20
2018-07-08T03:26:00.046Z,12.00
2018-07-08T03:28:27.813Z,10.83
2018-07-08T03:30:55.574Z,10.30
2018-07-08T03:33:23.399Z,13.43
2018-07-08T03:35:51.482Z,10.33
2018-07-08T03:38:19.260Z,12.93
2018-07-08T03:40:47.093Z,9.97
2018-07-08T03:43:14.873Z,14.33
2018-07-08T03:45:42.642Z,15.43
2018-07-08T03:48:10.437Z,16.60
2018-07-08T03:50:38.196Z,9.73
2018-07-08T03:53:05.925Z,10.50
2018-07-08T03:55:33.731Z,10.07
2018-07-08T03:58:01.403Z,12.17
2018-07-08T04:00:29.581Z,8.90
2018-07-08T04:02:57.325Z,10.33
2018-07-08T04:05:25.047Z,12.80
2018-07-08T04:07:53.260Z,11.13
2018-07-08T04:10:21.032Z,10.00
2018-07-08T04:12:48.786Z,10.60
2018-07-08T04:15:16.573Z,10.33
2018-07-08T04:17:44.537Z,9.23
2018-07-08T04:20:12.292Z,14.23
2018-07-08T04:22:40.005Z,17.57
2018-07-08T04:25:07.814Z,11.33
2018-07-08T04:27:35.539Z,11.10
2018-07-08T04:30:05.218Z,8.07
2018-07-08T04:32:33.015Z,13.20
2018-07-08T04:35:00.831Z,14.40
2018-07-08T04:37:28.485Z,12.67
2018-07-08T04:39:56.233Z,10.93
2018-07-08T04:42:23.896Z,9.90
2018-07-08T04:44:51.722Z,9.47
2018-07-08T04:47:19.530Z,9.37
2018-07-08T04:49:47.342Z,10.33
2018-07-08T04:52:15.110Z,10.70
2018-07-08T04:54:42.822Z,8.40
2018-07-08T04:57:10.530Z,12.47
2018-07-08T04:59:38.309Z,12.27
2018-07-08T05:02:06.094Z,10.07
2018-07-08T05:04:33.875Z,9.93
2018-07-08T05:07:01.635Z,11.50
2018-07-08T05:09:29.360Z,9.47
2018-07-08T05:11:57.165Z,15.00
2018-07-08T05:14:24.874Z,9.07
2018-07-08T05:16:52.591Z,9.70
2018-07-08T05:19:20.302Z,8.93
2018-07-08T05:21:48.123Z,11.63
2018-07-08T05:24:15.842Z,13.80
2018-07-08T05:26:43.590Z,12.67
2018-07-08T05:29:11.403Z,8.63
2018-07-08T05:31:39.117Z,11.17
2018-07-08T05:34:07.036Z,11.70
2018-07-08T05:36:34.765Z,8.77
2018-07-08T05:39:02.702Z,7.60
2018-07-08T05:41:30.466Z,10.80
2018-07-08T05:43:58.195Z,9.03
2018-07-08T05:46:25.967Z,13.10
2018-07-08T05:48:53.734Z,11.83
2018-07-08T05:51:21.526Z,9.27
2018-07-08T05:53:49.254Z,10.03
2018-07-08T05:56:17.266Z,11.40
2018-07-08T05:58:45.034Z,12.47
2018-07-08T06:01:12.808Z,10.43
2018-07-08T06:03:40.723Z,10.10
2018-07-08T06:06:08.382Z,13.50
2018-07-08T06:08:36.335Z,9.60
2018-07-08T06:11:04.094Z,11.43
2018-07-08T06:13:31.894Z,9.50
2018-07-08T06:15:59.670Z,9.83
2018-07-08T06:18:27.447Z,9.47
2018-07-08T06:20:55.433Z,9.03
2018-07-08T06:23:23.444Z,6.83
2018-07-08T06:25:51.609Z,8.20
2018-07-08T06:28:20.717Z,10.13
2018-07-08T06:30:48.437Z,11.33
2018-07-08T06:33:16.201Z,9.27
2018-07-08T06:35:44.016Z,10.73
2018-07-08T06:38:12.824Z,9.90
2018-07-08T06:40:40.688Z,12.73
2018-07-08T06:43:09.810Z,11.33
2018-07-08T06:45:37.579Z,12.83
2018-07-08T06:48:05.374Z,12.13
2018-07-08T06:50:33.061Z,8.10
2018-07-08T06:53:00.769Z,9.67
2018-07-08T06:55:28.553Z,12.83
2018-07-08T06:57:56.372Z,10.10
2018-07-08T07:00:25.536Z,9.63
2018-07-08T07:02:53.542Z,9.70
2018-07-08T07:05:21.283Z,12.10
2018-07-08T07:07:49.298Z,8.37
2018-07-08T07:10:17.178Z,10.23
2018-07-08T07:12:44.962Z,13.10
2018-07-08T07:15:12.813Z,11.70
2018-07-08T07:17:40.764Z,12.13
2018-07-08T07:20:08.597Z,9.70
2018-07-08T07:22:36.425Z,10.77
2018-07-08T07:25:04.190Z,11.30
2018-07-08T07:27:31.916Z,9.13
2018-07-08T07:29:59.729Z,7.97
2018-07-08T07:32:27.422Z,8.57
2018-07-08T07:34:55.243Z,8.03
2018-07-08T07:37:23.087Z,11.80
2018-07-08T07:39:50.825Z,6.90
2018-07-08T07:42:18.580Z,10.93
2018-07-08T07:44:46.352Z,7.87
2018-07-08T07:47:14.123Z,10.07
2018-07-08T07:49:41.894Z,9.37
2018-07-08T07:52:09.690Z,11.17
2018-07-08T07:54:37.396Z,8.07
2018-07-08T07:57:05.632Z,10.80
2018-07-08T07:59:33.359Z,10.47
2018-07-08T08:02:01.103Z,10.03
2018-07-08T08:04:28.894Z,11.30
2018-07-08T08:06:56.644Z,8.53
2018-07-08T08:09:24.508Z,11.60
2018-07-08T08:11:52.268Z,7.87
2018-07-08T08:14:20.123Z,8.00
2018-07-08T08:16:47.954Z,8.20
2018-07-08T08:19:15.692Z,9.10
2018-07-08T08:21:43.502Z,8.87
2018-07-08T08:24:11.253Z,8.57
2018-07-08T08:26:39.067Z,11.33
2018-07-08T08:29:06.935Z,9.77
2018-07-08T08:31:34.726Z,9.03
2018-07-08T08:35:10.166Z,8.73
2018-07-08T08:37:42.290Z,8.67
2018-07-08T08:40:10.711Z,6.40
2018-07-08T08:42:38.718Z,8.73
2018-07-08T08:45:07.158Z,7.97
2018-07-08T08:47:35.288Z,7.63
2018-07-08T08:50:03.158Z,9.53
2018-07-08T08:52:30.952Z,8.80
2018-07-08T08:54:58.725Z,8.13
2018-07-08T08:57:26.497Z,7.43
2018-07-08T08:59:54.575Z,11.43
2018-07-08T09:02:22.284Z,7.50
2018-07-08T09:04:50.087Z,6.83
2018-07-08T09:07:18.894Z,8.77
2018-07-08T09:09:46.698Z,7.50
2018-07-08T09:12:14.860Z,7.47
2018-07-08T09:14:42.690Z,8.03
2018-07-08T09:17:10.667Z,8.50
2018-07-08T09:19:38.474Z,7.83
2018-07-08T09:22:07.170Z,8.87
2018-07-08T09:24:35.017Z,6.73
2018-07-08T09:27:02.754Z,6.60
2018-07-08T09:29:30.499Z,8.77
2018-07-08T09:31:58.263Z,7.40
2018-07-08T09:34:26.030Z,8.03
2018-07-08T09:36:54.000Z,9.30
2018-07-08T09:39:21.785Z,8.63
2018-07-08T09:41:49.594Z,9.33
2018-07-08T09:44:17.927Z,8.90
2018-07-08T09:46:46.661Z,7.70
2018-07-08T09:49:14.659Z,8.57
2018-07-08T09:51:43.849Z,7.97
2018-07-08T09:54:11.705Z,6.60
2018-07-08T09:56:39.500Z,8.50
2018-07-08T09:59:07.298Z,8.03
2018-07-08T10:01:41.144Z,7.20
2018-07-08T10:04:11.522Z,6.60
2018-07-08T10:06:39.654Z,7.43
2018-07-08T10:09:09.180Z,8.20
2018-07-08T10:11:37.242Z,8.00
2018-07-08T10:14:05.391Z,7.97
2018-07-08T10:16:33.121Z,8.60
2018-07-08T10:19:00.954Z,7.77
2018-07-08T10:21:28.828Z,7.70
2018-07-08T10:23:56.626Z,7.20
2018-07-08T10:26:24.428Z,7.70
2018-07-08T10:28:52.144Z,8.40
2018-07-08T10:31:30.231Z,9.87
2018-07-08T10:33:58.329Z,7.93
2018-07-08T10:36:26.098Z,8.40
2018-07-08T10:38:53.894Z,7.87
2018-07-08T10:41:21.595Z,6.70
2018-07-08T10:43:49.628Z,9.87
2018-07-08T10:46:17.811Z,7.80
2018-07-08T10:48:45.547Z,8.60
2018-07-08T10:51:13.340Z,9.33
2018-07-08T10:53:41.042Z,8.00
2018-07-08T10:56:08.815Z,8.03
2018-07-08T10:58:36.670Z,7.57
2018-07-08T11:01:04.447Z,7.10
2018-07-08T11:03:32.312Z,7.60
2018-07-08T11:06:00.140Z,8.57
2018-07-08T11:08:28.142Z,7.23
2018-07-08T11:10:55.960Z,7.53
2018-07-08T11:13:23.713Z,6.27
2018-07-08T11:15:51.614Z,7.50
2018-07-08T11:18:19.458Z,6.70
2018-07-08T11:20:47.187Z,9.10
2018-07-08T11:23:14.930Z,7.77
2018-07-08T11:25:42.696Z,7.47
2018-07-08T11:28:10.993Z,26.10
2018-07-08T11:30:39.201Z,8.00
2018-07-08T11:33:07.552Z,6.83
2018-07-08T11:35:35.322Z,9.60
2018-07-08T11:38:03.106Z,8.17
2018-07-08T11:40:31.086Z,7.20
2018-07-08T11:42:58.901Z,7.03
2018-07-08T11:45:26.652Z,7.63
2018-07-08T11:47:54.434Z,8.33
2018-07-08T11:50:22.219Z,7.60
2018-07-08T11:52:49.938Z,7.43
2018-07-08T11:55:17.775Z,7.00
2018-07-08T11:57:45.540Z,7.10
2018-07-08T12:00:13.775Z,6.33
2018-07-08T12:02:41.582Z,6.83
2018-07-08T12:05:09.434Z,7.57
2018-07-08T12:07:37.316Z,6.93
2018-07-08T12:10:05.102Z,7.20
2018-07-08T12:12:32.907Z,8.67
2018-07-08T12:15:00.684Z,6.10
2018-07-08T12:17:28.533Z,6.90
2018-07-08T12:19:56.199Z,6.43
2018-07-08T12:22:24.238Z,6.40
2018-07-08T12:24:51.965Z,6.83
2018-07-08T12:27:19.753Z,7.27
2018-07-08T12:29:48.103Z,6.07
2018-07-08T12:32:15.888Z,8.30
2018-07-08T12:34:43.672Z,6.30
2018-07-08T12:37:11.472Z,5.80
2018-07-08T12:39:39.278Z,6.63
2018-07-08T12:42:07.050Z,6.07
2018-07-08T12:44:35.076Z,6.10
2018-07-08T12:47:02.771Z,6.73
2018-07-08T12:49:30.596Z,5.77
2018-07-08T12:51:58.981Z,5.30
2018-07-08T12:54:26.735Z,6.00
2018-07-08T12:56:54.550Z,6.10
2018-07-08T12:59:22.370Z,6.83
2018-07-08T13:01:50.062Z,6.13
2018-07-08T13:04:18.040Z,7.97
2018-07-08T13:06:45.804Z,7.17
2018-07-08T13:09:13.642Z,7.53
2018-07-08T13:11:41.454Z,5.10
2018-07-08T13:14:09.208Z,5.20
2018-07-08T13:16:36.933Z,5.83
2018-07-08T13:19:04.840Z,7.80
2018-07-08T13:21:32.600Z,6.50
2018-07-08T13:24:00.396Z,5.90
2018-07-08T13:26:28.215Z,6.97
2018-07-08T13:28:56.087Z,6.47
2018-07-08T13:31:23.903Z,6.30
2018-07-08T13:33:51.626Z,7.23
2018-07-08T13:36:19.381Z,6.50
2018-07-08T13:38:47.181Z,5.37
2018-07-08T13:41:14.943Z,5.77
2018-07-08T13:43:42.706Z,4.50
2018-07-08T13:46:10.471Z,4.80
2018-07-08T13:48:38.295Z,5.60
2018-07-08T13:51:06.726Z,5.50
2018-07-08T13:53:34.397Z,5.73
2018-07-08T13:56:02.089Z,5.43
2018-07-08T13:58:29.955Z,5.60
2018-07-08T14:00:57.771Z,6.03
2018-07-08T14:03:25.518Z,4.80
2018-07-08T14:05:53.368Z,7.47
2018-07-08T14:08:21.143Z,7.17
2018-07-08T14:10:48.942Z,5.57
2018-07-08T14:13:16.743Z,5.03
2018-07-08T14:15:44.531Z,5.27
2018-07-08T14:18:12.334Z,6.03
2018-07-08T14:20:40.214Z,5.07
2018-07-08T14:23:07.883Z,5.73
2018-07-08T14:25:35.580Z,5.33
2018-07-08T14:28:03.387Z,5.77
2018-07-08T14:30:31.527Z,6.63
2018-07-08T14:33:00.011Z,5.27
2018-07-08T14:35:27.807Z,6.80
2018-07-08T14:37:55.572Z,5.40
2018-07-08T14:40:23.343Z,5.43
2018-07-08T14:42:51.055Z,5.70
2018-07-08T14:45:19.128Z,5.40
2018-07-08T14:47:46.936Z,6.20
2018-07-08T14:50:14.700Z,6.10
2018-07-08T14:52:42.538Z,5.10
2018-07-08T14:55:10.285Z,6.63
2018-07-08T14:57:38.077Z,5.87
2018-07-08T15:00:06.258Z,6.07
2018-07-08T15:02:34.030Z,6.53
2018-07-08T15:05:01.958Z,5.90
2018-07-08T15:07:30.365Z,6.13
2018-07-08T15:09:58.145Z,6.73
2018-07-08T15:12:25.918Z,6.20
2018-07-08T15:14:53.564Z,5.70
2018-07-08T15:17:21.334Z,6.47
2018-07-08T15:19:49.021Z,7.33
2018-07-08T15:22:16.790Z,6.03
2018-07-08T15:24:44.573Z,6.77
2018-07-08T15:27:12.383Z,5.80
2018-07-08T15:29:40.102Z,6.67
2018-07-08T15:32:07.955Z,6.57
2018-07-08T15:34:35.734Z,5.10
2018-07-08T15:37:03.635Z,5.50
2018-07-08T15:39:31.443Z,5.50
2018-07-08T15:41:59.231Z,5.80
2018-07-08T15:44:27.028Z,5.20
2018-07-08T15:46:54.825Z,4.83
2018-07-08T15:49:22.626Z,5.50
2018-07-08T15:51:50.383Z,5.30
2018-07-08T15:54:18.383Z,5.10
2018-07-08T15:56:46.194Z,5.10
2018-07-08T15:59:14.330Z,5.23
2018-07-08T16:01:42.006Z,5.27
2018-07-08T16:04:09.813Z,5.33
2018-07-08T16:06:37.571Z,4.70
2018-07-08T16:09:05.997Z,4.87
2018-07-08T16:11:35.294Z,5.43
2018-07-08T16:14:01.578Z,5.03
2018-07-08T16:16:29.689Z,5.73
2018-07-08T16:18:57.669Z,5.40
2018-07-08T16:21:25.558Z,4.63
2018-07-08T16:23:53.232Z,5.00
2018-07-08T16:26:21.164Z,5.13
2018-07-08T16:28:48.976Z,5.80
2018-07-08T16:31:16.779Z,5.83
2018-07-08T16:33:44.566Z,5.07
2018-07-08T16:36:12.344Z,5.37
2018-07-08T16:38:40.137Z,4.70
2018-07-08T16:41:07.908Z,5.70
2018-07-08T16:43:35.711Z,5.40
2018-07-08T16:46:03.421Z,5.97
2018-07-08T16:48:31.223Z,6.03
2018-07-08T16:51:00.019Z,5.70
2018-07-08T16:53:27.888Z,5.30
2018-07-08T16:55:55.601Z,5.07
2018-07-08T16:58:23.459Z,4.50
2018-07-08T17:00:51.230Z,5.40
2018-07-08T17:03:19.153Z,5.20
2018-07-08T17:05:46.900Z,5.40
2018-07-08T17:08:14.777Z,5.27
2018-07-08T17:10:42.495Z,5.43
2018-07-08T17:13:10.299Z,5.70
2018-07-08T17:15:38.056Z,4.90
2018-07-08T17:18:05.874Z,5.43
2018-07-08T17:20:33.687Z,4.50
2018-07-08T17:23:01.365Z,5.80
2018-07-08T17:25:29.091Z,5.40
2018-07-08T17:27:56.925Z,5.80
2018-07-08T17:30:25.242Z,4.77
2018-07-08T17:32:52.994Z,5.40
2018-07-08T17:35:20.796Z,5.03
2018-07-08T17:37:48.591Z,5.53
2018-07-08T17:40:16.378Z,5.03
2018-07-08T17:42:44.150Z,5.00
2018-07-08T17:45:12.122Z,4.70
2018-07-08T17:47:39.963Z,4.60
2018-07-08T17:50:07.745Z,4.97
2018-07-08T17:52:35.491Z,5.27
2018-07-08T17:55:03.538Z,4.80
2018-07-08T17:57:31.348Z,6.20
2018-07-08T17:59:59.152Z,6.63
2018-07-08T18:02:26.852Z,5.30
2018-07-08T18:04:54.838Z,5.90
2018-07-08T18:07:22.548Z,4.77
2018-07-08T18:09:50.249Z,4.90
2018-07-08T18:12:18.055Z,4.73
2018-07-08T18:14:45.725Z,4.67
2018-07-08T18:17:13.505Z,5.10
2018-07-08T18:19:42.136Z,6.00
2018-07-08T18:22:09.946Z,5.20
2018-07-08T18:24:37.699Z,5.80
2018-07-08T18:27:05.557Z,5.30
2018-07-08T18:29:33.347Z,5.20
2018-07-08T18:32:01.120Z,5.80
2018-07-08T18:34:28.833Z,5.83
2018-07-08T18:36:56.606Z,5.70
2018-07-08T18:39:24.437Z,7.00
2018-07-08T18:41:52.607Z,5.30
2018-07-08T18:44:20.416Z,6.33
2018-07-08T18:46:48.212Z,6.27
2018-07-08T18:49:15.902Z,6.23
2018-07-08T18:51:43.681Z,6.13
2018-07-08T18:54:11.430Z,6.30
2018-07-08T18:56:39.203Z,5.13
2018-07-08T18:59:06.991Z,6.23
2018-07-08T19:01:34.796Z,5.60
2018-07-08T19:04:02.621Z,6.57
2018-07-08T19:06:30.403Z,6.30
2018-07-08T19:08:58.197Z,5.70
2018-07-08T19:11:25.982Z,6.10
2018-07-08T19:13:53.778Z,5.40
2018-07-08T19:16:21.505Z,6.27
2018-07-08T19:18:49.271Z,5.27
2018-07-08T19:21:17.035Z,5.40
2018-07-08T19:23:45.140Z,6.07
2018-07-08T19:26:12.886Z,6.33
2018-07-08T19:28:40.688Z,7.40
2018-07-08T19:31:08.406Z,5.40
2018-07-08T19:33:36.273Z,5.60
2018-07-08T19:36:04.077Z,7.33
2018-07-08T19:38:32.271Z,5.00
2018-07-08T19:41:00.794Z,5.03
2018-07-08T19:43:28.578Z,6.00
2018-07-08T19:45:56.405Z,5.70
2018-07-08T19:48:24.280Z,5.67
2018-07-08T19:50:52.073Z,5.43
2018-07-08T19:53:19.901Z,6.30
2018-07-08T19:55:48.249Z,5.10
2018-07-08T19:58:16.135Z,5.77
2018-07-08T20:00:43.918Z,5.60
2018-07-08T20:03:11.698Z,5.50
2018-07-08T20:05:39.537Z,5.77
2018-07-08T20:08:07.259Z,5.93
2018-07-08T20:10:34.965Z,5.40
2018-07-08T20:13:02.765Z,4.70
2018-07-08T20:15:30.518Z,5.77
2018-07-08T20:17:58.526Z,5.50
2018-07-08T20:20:26.260Z,5.87
2018-07-08T20:22:53.998Z,5.47
2018-07-08T20:25:21.804Z,5.10
2018-07-08T20:27:49.571Z,5.93
2018-07-08T20:30:17.383Z,5.73
2018-07-08T20:32:45.106Z,4.80
2018-07-08T20:35:12.872Z,4.80
2018-07-08T20:37:40.635Z,5.50
2018-07-08T20:40:08.286Z,4.77
2018-07-08T20:42:36.358Z,5.43
2018-07-08T20:45:04.065Z,5.17
2018-07-08T20:47:31.847Z,5.70
2018-07-08T20:49:59.630Z,3.43
2018-07-08T20:52:27.486Z,4.80
2018-07-08T20:54:55.225Z,5.17
2018-07-08T20:57:23.008Z,4.03
2018-07-08T20:59:51.926Z,3.60
2018-07-08T21:02:19.754Z,3.90
2018-07-08T21:04:47.563Z,3.70
2018-07-08T21:07:15.333Z,3.23
2018-07-08T21:09:43.042Z,4.00
2018-07-08T21:12:10.806Z,3.80
2018-07-08T21:14:38.562Z,2.73
2018-07-08T21:17:06.337Z,6.17
2018-07-08T21:19:34.472Z,4.33
2018-07-08T21:22:02.217Z,3.17
2018-07-08T21:24:29.991Z,2.30
2018-07-08T21:26:57.773Z,4.20
2018-07-08T21:29:25.603Z,2.43
2018-07-08T21:31:53.380Z,3.00
2018-07-08T21:34:21.113Z,3.80
2018-07-08T21:36:48.946Z,4.07
2018-07-08T21:39:16.817Z,3.10
2018-07-08T21:41:44.650Z,3.60
2018-07-08T21:44:12.447Z,3.10
2018-07-08T21:46:40.250Z,2.73
2018-07-08T21:49:09.059Z,4.10
2018-07-08T21:51:36.953Z,3.73
2018-07-08T21:54:04.767Z,4.37
2018-07-08T21:56:32.551Z,3.90
2018-07-08T21:59:00.319Z,2.57
2018-07-08T22:01:30.638Z,4.03
2018-07-08T22:03:58.398Z,3.13
2018-07-08T22:06:26.254Z,3.50
2018-07-08T22:08:53.927Z,3.80
2018-07-08T22:11:21.632Z,2.87
2018-07-08T22:13:49.811Z,3.10
2018-07-08T22:16:18.107Z,3.20
2018-07-08T22:18:45.891Z,3.03
2018-07-08T22:21:13.662Z,3.13
2018-07-08T22:23:41.382Z,3.63
2018-07-08T22:26:09.177Z,3.60
2018-07-08T22:28:36.950Z,2.73
2018-07-08T22:31:04.770Z,3.63
2018-07-08T22:33:32.578Z,4.00
2018-07-08T22:36:00.341Z,3.50
2018-07-08T22:38:28.621Z,4.07
2018-07-08T22:40:56.423Z,3.60
2018-07-08T22:43:24.165Z,3.70
2018-07-08T22:45:51.957Z,3.40
2018-07-08T22:48:19.686Z,3.90
2018-07-08T22:50:47.489Z,3.80
2018-07-08T22:53:15.290Z,3.80
2018-07-08T22:55:43.039Z,3.87
2018-07-08T22:58:10.836Z,3.70
2018-07-08T23:00:50.101Z,3.30
2018-07-08T23:03:57.649Z,3.60
2018-07-08T23:06:25.462Z,3.90
2018-07-08T23:08:53.990Z,3.70
2018-07-08T23:11:22.693Z,4.90
2018-07-08T23:13:51.936Z,5.43
2018-07-08T23:16:20.261Z,3.97
2018-07-08T23:18:48.091Z,3.47
2018-07-08T23:21:15.862Z,3.67
2018-07-08T23:23:43.676Z,4.87
2018-07-08T23:26:11.341Z,3.77
2018-07-08T23:28:39.035Z,7.73
2018-07-08T23:31:07.929Z,4.50
2018-07-08T23:33:35.746Z,5.60
2018-07-08T23:36:04.138Z,3.93
2018-07-08T23:38:32.294Z,5.73
2018-07-08T23:41:01.050Z,7.40
2018-07-08T23:43:29.365Z,4.20
2018-07-08T23:45:57.411Z,5.33
2018-07-08T23:48:25.303Z,4.60
2018-07-08T23:50:53.115Z,4.47
2018-07-08T23:53:20.890Z,4.87
2018-07-08T23:55:48.653Z,3.63
2018-07-08T23:58:16.434Z,4.10
